Oriental Beauty — 3FWN4 — position and weather

sailwx.info

Track history (hours):
 
Tides and Currents Weather Stations Pressure Air Temp Water Temp Dewpoint Dewpoint Depression Visibility Wind Speed Wind Dir Waves Ship Positions

Oriental Beauty

Last reported at 2018-Jul-09 07:10 UTC. Time now 2018-Jul-23 15:32 UTC.
Position N 33°42' E 134°44'.
Warning: this ship's position is 14 days out of date.

Length 149 m; draft 5.4 m.

Type: Cargo ship. MMSI: 352065000.

Date/timePositionNaut miles runAvg speedWind from/ knotsBaromVisibWave heightAir tempDewpointWater temp
2018-Jul-09 07:10N 33°42' E 134°44'911.1
2018-Jul-09 06:20N 33°49' E 134°51'910.8
2018-Jul-09 05:32N 33°57' E 134°54'110.9
2018-Jul-09 05:28N 33°58' E 134°54'511.2
2018-Jul-09 05:00N 34°03' E 134°55'611.8
2018-Jul-09 04:30N 34°09' E 134°57'611.6
2018-Jul-09 04:00N 34°15' E 134°58'713.0
2018-Jul-09 03:30N 34°21' E 134°60'714.0
2018-Jul-09 03:00N 34°27' E 135°03'713.1
2018-Jul-09 02:31N 34°33' E 135°07'510.0
2018-Jul-09 01:58N 34°37' E 135°01'612.2
2018-Jul-09 01:30N 34°37' E 134°55'610.8
2018-Jul-09 00:59N 34°40' E 134°49'2 3.3
2018-Jul-09 00:28N 34°41' E 134°48'0 0.1
2018-Jul-09 00:00N 34°41' E 134°48'0 0.1
2018-Jul-08 23:27N 34°41' E 134°48'0 0.0
2018-Jul-08 23:00N 34°41' E 134°48'0 0.3
2018-Jul-08 22:27N 34°41' E 134°48'2 5.2
2018-Jul-08 22:00N 34°42' E 134°50'1 0.0
2018-Jul-08 06:29N 34°43' E 134°50'0 0.0
2018-Jul-08 05:56N 34°43' E 134°50'0 0.0
2018-Jul-07 12:14N 34°43' E 134°50'0 0.0
2018-Jul-07 05:23N 34°43' E 134°50'0 0.0
2018-Jul-07 04:44N 34°43' E 134°50'0 0.0
2018-Jul-07 04:17N 34°43' E 134°50'0 0.0
2018-Jul-07 02:59N 34°43' E 134°50'0 0.0
2018-Jul-07 02:29N 34°43' E 134°50'0 0.0
2018-Jul-06 19:55N 34°43' E 134°50'0 0.0
2018-Jul-06 19:20N 34°43' E 134°50'0 0.0
2018-Jul-06 07:04N 34°43' E 134°50'0 0.0
2018-Jul-06 06:43N 34°43' E 134°50'0 0.0
2018-Jul-05 19:01N 34°43' E 134°50'0 0.0
2018-Jul-05 18:43N 34°43' E 134°50'0 0.0
2018-Jul-05 16:31N 34°43' E 134°50'0 0.0
2018-Jul-05 16:07N 34°43' E 134°50'0 0.0
2018-Jul-05 01:52N 34°43' E 134°50'0 0.0
2018-Jul-05 00:46N 34°43' E 134°50'0 0.2
2018-Jul-04 23:01N 34°43' E 134°50'0 4.3
2018-Jul-04 22:59N 34°42' E 134°50'4 1.5
2018-Jul-04 20:23N 34°40' E 134°47'0 0.0
2018-Jul-04 19:56N 34°40' E 134°47'0 0.0
2018-Jul-04 17:35N 34°40' E 134°47'0 0.0
2018-Jul-04 17:29N 34°40' E 134°47'0 0.1
2018-Jul-04 16:53N 34°40' E 134°47'0 0.0
2018-Jul-04 16:29N 34°40' E 134°47'0 0.1
2018-Jul-04 15:29N 34°40' E 134°47'0 0.0
2018-Jul-04 13:05N 34°40' E 134°47'0 0.1
2018-Jul-04 12:59N 34°40' E 134°47'0 0.0
2018-Jul-04 05:47N 34°40' E 134°47'0 0.0
2018-Jul-04 05:12N 34°40' E 134°47'0 0.0
2018-Jul-04 04:59N 34°40' E 134°47'0 0.0
2018-Jul-04 04:30N 34°40' E 134°47'0 0.0
2018-Jul-04 03:51N 34°40' E 134°47'0 0.1
2018-Jul-04 02:54N 34°40' E 134°47'0 0.1
2018-Jul-04 02:27N 34°40' E 134°47'0 0.0
2018-Jul-04 02:00N 34°40' E 134°47'0 0.0
2018-Jul-04 01:24N 34°40' E 134°47'0 0.0
2018-Jul-03 23:48N 34°40' E 134°47'0 0.0
2018-Jul-03 23:30N 34°40' E 134°47'0 0.0
2018-Jul-03 22:45N 34°40' E 134°47'0 0.0
2018-Jul-03 22:24N 34°40' E 134°47'0 0.0
2018-Jul-03 21:00N 34°40' E 134°47'0 0.0
2018-Jul-03 20:21N 34°40' E 134°47'0 0.0
2018-Jul-03 16:39N 34°40' E 134°47'0 0.0
2018-Jul-03 16:27N 34°40' E 134°47'0 0.0
2018-Jul-03 15:57N 34°40' E 134°47'0 0.1
2018-Jul-03 15:30N 34°40' E 134°47'0 0.0
2018-Jul-03 14:21N 34°40' E 134°47'0 0.0
2018-Jul-03 12:51N 34°40' E 134°47'0 0.0
2018-Jul-03 12:30N 34°40' E 134°47'0 0.0
2018-Jul-03 11:54N 34°40' E 134°47'0 0.1
2018-Jul-03 11:30N 34°40' E 134°47'1 1.7
2018-Jul-03 10:58N 34°39' E 134°48'4 8.0
2018-Jul-03 10:30N 34°38' E 134°52'612.2
2018-Jul-03 10:00N 34°38' E 134°59'510.2
2018-Jul-03 09:30N 34°35' E 135°05'4 7.2
2018-Jul-03 09:00N 34°33' E 135°08'4 8.8
2018-Jul-03 08:30N 34°29' E 135°07'510.8
2018-Jul-03 08:00N 34°24' E 135°03'612.8
2018-Jul-03 07:30N 34°19' E 134°60'611.2
2018-Jul-03 07:00N 34°13' E 134°60'611.1
2018-Jul-03 06:30N 34°08' E 134°60'712.9
2018-Jul-03 06:00N 34°01' E 134°60'612.9
2018-Jul-03 05:30N 33°55' E 134°60'612.6
2018-Jul-03 05:00N 33°49' E 134°58'  
Track history (hours):
 
Tides and Currents Weather Stations Pressure Air Temp Water Temp Dewpoint Dewpoint Depression Visibility Wind Speed Wind Dir Waves Ship Positions

Oriental Beauty

Last reported at 2018-Jul-09 07:10 UTC. Time now 2018-Jul-23 15:32 UTC.
Position N 33°42' E 134°44'.
Warning: this ship's position is 14 days out of date.

Length 149 m; draft 5.4 m.

Type: Cargo ship. MMSI: 352065000.

Date/timePositionNaut miles runAvg speedWind from/ knotsBaromVisibWave heightAir tempDewpointWater temp
2018-Jul-09 07:10N 33°42' E 134°44'911.1
2018-Jul-09 06:20N 33°49' E 134°51'910.8
2018-Jul-09 05:32N 33°57' E 134°54'110.9
2018-Jul-09 05:28N 33°58' E 134°54'511.2
2018-Jul-09 05:00N 34°03' E 134°55'611.8
2018-Jul-09 04:30N 34°09' E 134°57'611.6
2018-Jul-09 04:00N 34°15' E 134°58'713.0
2018-Jul-09 03:30N 34°21' E 134°60'714.0
2018-Jul-09 03:00N 34°27' E 135°03'713.1
2018-Jul-09 02:31N 34°33' E 135°07'510.0
2018-Jul-09 01:58N 34°37' E 135°01'612.2
2018-Jul-09 01:30N 34°37' E 134°55'610.8
2018-Jul-09 00:59N 34°40' E 134°49'2 3.3
2018-Jul-09 00:28N 34°41' E 134°48'0 0.1
2018-Jul-09 00:00N 34°41' E 134°48'0 0.1
2018-Jul-08 23:27N 34°41' E 134°48'0 0.0
2018-Jul-08 23:00N 34°41' E 134°48'0 0.3
2018-Jul-08 22:27N 34°41' E 134°48'2 5.2
2018-Jul-08 22:00N 34°42' E 134°50'1 0.0
2018-Jul-08 06:29N 34°43' E 134°50'0 0.0
2018-Jul-08 05:56N 34°43' E 134°50'0 0.0
2018-Jul-07 12:14N 34°43' E 134°50'0 0.0
2018-Jul-07 05:23N 34°43' E 134°50'0 0.0
2018-Jul-07 04:44N 34°43' E 134°50'0 0.0
2018-Jul-07 04:17N 34°43' E 134°50'0 0.0
2018-Jul-07 02:59N 34°43' E 134°50'0 0.0
2018-Jul-07 02:29N 34°43' E 134°50'0 0.0
2018-Jul-06 19:55N 34°43' E 134°50'0 0.0
2018-Jul-06 19:20N 34°43' E 134°50'0 0.0
2018-Jul-06 07:04N 34°43' E 134°50'0 0.0
2018-Jul-06 06:43N 34°43' E 134°50'0 0.0
2018-Jul-05 19:01N 34°43' E 134°50'0 0.0
2018-Jul-05 18:43N 34°43' E 134°50'0 0.0
2018-Jul-05 16:31N 34°43' E 134°50'0 0.0
2018-Jul-05 16:07N 34°43' E 134°50'0 0.0
2018-Jul-05 01:52N 34°43' E 134°50'0 0.0
2018-Jul-05 00:46N 34°43' E 134°50'0 0.2
2018-Jul-04 23:01N 34°43' E 134°50'0 4.3
2018-Jul-04 22:59N 34°42' E 134°50'4 1.5
2018-Jul-04 20:23N 34°40' E 134°47'0 0.0
2018-Jul-04 19:56N 34°40' E 134°47'0 0.0
2018-Jul-04 17:35N 34°40' E 134°47'0 0.0
2018-Jul-04 17:29N 34°40' E 134°47'0 0.1
2018-Jul-04 16:53N 34°40' E 134°47'0 0.0
2018-Jul-04 16:29N 34°40' E 134°47'0 0.1
2018-Jul-04 15:29N 34°40' E 134°47'0 0.0
2018-Jul-04 13:05N 34°40' E 134°47'0 0.1
2018-Jul-04 12:59N 34°40' E 134°47'0 0.0
2018-Jul-04 05:47N 34°40' E 134°47'0 0.0
2018-Jul-04 05:12N 34°40' E 134°47'0 0.0
2018-Jul-04 04:59N 34°40' E 134°47'0 0.0
2018-Jul-04 04:30N 34°40' E 134°47'0 0.0
2018-Jul-04 03:51N 34°40' E 134°47'0 0.1
2018-Jul-04 02:54N 34°40' E 134°47'0 0.1
2018-Jul-04 02:27N 34°40' E 134°47'0 0.0
2018-Jul-04 02:00N 34°40' E 134°47'0 0.0
2018-Jul-04 01:24N 34°40' E 134°47'0 0.0
2018-Jul-03 23:48N 34°40' E 134°47'0 0.0
2018-Jul-03 23:30N 34°40' E 134°47'0 0.0
2018-Jul-03 22:45N 34°40' E 134°47'0 0.0
2018-Jul-03 22:24N 34°40' E 134°47'0 0.0
2018-Jul-03 21:00N 34°40' E 134°47'0 0.0
2018-Jul-03 20:21N 34°40' E 134°47'0 0.0
2018-Jul-03 16:39N 34°40' E 134°47'0 0.0
2018-Jul-03 16:27N 34°40' E 134°47'0 0.0
2018-Jul-03 15:57N 34°40' E 134°47'0 0.1
2018-Jul-03 15:30N 34°40' E 134°47'0 0.0
2018-Jul-03 14:21N 34°40' E 134°47'0 0.0
2018-Jul-03 12:51N 34°40' E 134°47'0 0.0
2018-Jul-03 12:30N 34°40' E 134°47'0 0.0
2018-Jul-03 11:54N 34°40' E 134°47'0 0.1
2018-Jul-03 11:30N 34°40' E 134°47'1 1.7
2018-Jul-03 10:58N 34°39' E 134°48'4 8.0
2018-Jul-03 10:30N 34°38' E 134°52'612.2
2018-Jul-03 10:00N 34°38' E 134°59'510.2
2018-Jul-03 09:30N 34°35' E 135°05'4 7.2
2018-Jul-03 09:00N 34°33' E 135°08'4 8.8
2018-Jul-03 08:30N 34°29' E 135°07'510.8
2018-Jul-03 08:00N 34°24' E 135°03'612.8
2018-Jul-03 07:30N 34°19' E 134°60'611.2
2018-Jul-03 07:00N 34°13' E 134°60'611.1
2018-Jul-03 06:30N 34°08' E 134°60'712.9
2018-Jul-03 06:00N 34°01' E 134°60'612.9
2018-Jul-03 05:30N 33°55' E 134°60'612.6
2018-Jul-03 05:00N 33°49' E 134°58'  

Dump ship's entire track history